This is the latest recevied weather packets stored in our database for station/object DF7PN-WX. If no packets are shown the sender has not sent any weather packets the latest 10 day(s).
| Time | Temp. | Humidity | Pressure | Rain* | Wind** | Luminosity | Snow |
|---|---|---|---|---|---|---|---|
| 1778072798 | 19.44° C | 59% | 1006.3 hPa | - | - | - | - |
| 1778072498 | 19.44° C | 63% | 1006.3 hPa | - | - | - | - |
| 1778072198 | 18.89° C | 64% | 1006.3 hPa | - | - | - | - |
| 1778071898 | 18.89° C | 64% | 1006.4 hPa | - | - | - | - |
| 1778071597 | 17.78° C | 66% | 1006.4 hPa | - | - | - | - |
| 1778071297 | 17.78° C | 66% | 1006.4 hPa | - | - | - | - |
| 1778070997 | 17.78° C | 69% | 1006.4 hPa | - | - | - | - |
| 1778070697 | 17.78° C | 68% | 1006.5 hPa | - | - | - | - |
| 1778070397 | 18.33° C | 63% | 1006.4 hPa | - | - | - | - |
| 1778070097 | 19.44° C | 61% | 1006.5 hPa | - | - | - | - |
| 1778069797 | 19.44° C | 62% | 1006.5 hPa | - | - | - | - |
| 1778069497 | 19.44° C | 62% | 1006.5 hPa | - | - | - | - |
| 1778069197 | 18.89° C | 63% | 1006.5 hPa | - | - | - | - |
| 1778068897 | 18.89° C | 64% | 1006.5 hPa | - | - | - | - |
| 1778068597 | 18.89° C | 65% | 1006.5 hPa | - | - | - | - |
| 1778068297 | 18.33° C | 66% | 1006.5 hPa | - | - | - | - |
| 1778067997 | 17.78° C | 67% | 1006.4 hPa | - | - | - | - |
| 1778067702 | 18.33° C | 66% | 1006.5 hPa | - | - | - | - |
| 1778067397 | 18.33° C | 67% | 1006.5 hPa | - | - | - | - |
| 1778067096 | 18.33° C | 66% | 1006.5 hPa | - | - | - | - |
| 1778066796 | 17.78° C | 69% | 1006.6 hPa | - | - | - | - |
| 1778066496 | 17.22° C | 69% | 1006.5 hPa | - | - | - | - |
| 1778066196 | 17.78° C | 66% | 1006.6 hPa | - | - | - | - |
| 1778065896 | 17.78° C | 65% | 1006.5 hPa | - | - | - | - |
| 1778065596 | 18.33° C | 64% | 1006.6 hPa | - | - | - | - |
* Rain since midnight (hover to see other rain measurements)
** Current wind speed in m/s (hover to see current wind gust speed)